sensor_id;sensor_type;location;lat;lon;timestamp;P1;durP1;ratioP1;P2;durP2;ratioP2
52438;SDS011;38359;53.150;6.504;2023-04-24T00:01:50;8.02;;;5.30;;
52438;SDS011;38359;53.150;6.504;2023-04-24T00:12:16;16.42;;;5.88;;
52438;SDS011;38359;53.150;6.504;2023-04-24T00:22:42;6.38;;;4.90;;
52438;SDS011;38359;53.150;6.504;2023-04-24T00:33:08;6.10;;;3.80;;
52438;SDS011;38359;53.150;6.504;2023-04-24T00:43:34;5.57;;;3.20;;
52438;SDS011;38359;53.150;6.504;2023-04-24T00:54:00;4.47;;;1.85;;
52438;SDS011;38359;53.150;6.504;2023-04-24T01:04:26;4.30;;;1.85;;
52438;SDS011;38359;53.150;6.504;2023-04-24T01:14:52;1.77;;;1.67;;
52438;SDS011;38359;53.150;6.504;2023-04-24T01:25:18;1.50;;;1.40;;
52438;SDS011;38359;53.150;6.504;2023-04-24T01:35:44;3.35;;;1.92;;
52438;SDS011;38359;53.150;6.504;2023-04-24T01:46:10;2.42;;;2.22;;
52438;SDS011;38359;53.150;6.504;2023-04-24T01:56:36;3.05;;;2.75;;
52438;SDS011;38359;53.150;6.504;2023-04-24T02:07:05;3.15;;;2.85;;
52438;SDS011;38359;53.150;6.504;2023-04-24T02:17:31;4.25;;;3.85;;
52438;SDS011;38359;53.150;6.504;2023-04-24T02:27:58;5.53;;;5.03;;
52438;SDS011;38359;53.150;6.504;2023-04-24T02:38:24;7.00;;;6.18;;
52438;SDS011;38359;53.150;6.504;2023-04-24T02:48:50;7.95;;;6.38;;
52438;SDS011;38359;53.150;6.504;2023-04-24T02:59:16;9.55;;;8.10;;
52438;SDS011;38359;53.150;6.504;2023-04-24T03:09:45;11.40;;;9.75;;
52438;SDS011;38359;53.150;6.504;2023-04-24T03:20:10;17.02;;;12.25;;
52438;SDS011;38359;53.150;6.504;2023-04-24T03:30:37;22.55;;;14.63;;
52438;SDS011;38359;53.150;6.504;2023-04-24T03:41:02;19.45;;;16.20;;
52438;SDS011;38359;53.150;6.504;2023-04-24T03:51:28;19.67;;;16.08;;
52438;SDS011;38359;53.150;6.504;2023-04-24T04:01:56;22.05;;;15.32;;
52438;SDS011;38359;53.150;6.504;2023-04-24T04:12:22;15.07;;;12.77;;
52438;SDS011;38359;53.150;6.504;2023-04-24T04:22:47;14.25;;;11.75;;
52438;SDS011;38359;53.150;6.504;2023-04-24T04:33:13;19.08;;;12.40;;
52438;SDS011;38359;53.150;6.504;2023-04-24T04:43:39;15.52;;;11.10;;
52438;SDS011;38359;53.150;6.504;2023-04-24T04:54:06;15.45;;;12.68;;
52438;SDS011;38359;53.150;6.504;2023-04-24T05:04:32;10.95;;;9.70;;
52438;SDS011;38359;53.150;6.504;2023-04-24T05:14:58;5.93;;;4.88;;
52438;SDS011;38359;53.150;6.504;2023-04-24T05:25:24;4.20;;;3.63;;
52438;SDS011;38359;53.150;6.504;2023-04-24T05:35:50;4.03;;;2.75;;
52438;SDS011;38359;53.150;6.504;2023-04-24T05:46:16;4.38;;;2.47;;
52438;SDS011;38359;53.150;6.504;2023-04-24T05:56:42;11.55;;;3.10;;
52438;SDS011;38359;53.150;6.504;2023-04-24T06:07:07;10.70;;;4.20;;
52438;SDS011;38359;53.150;6.504;2023-04-24T06:17:33;8.52;;;5.03;;
52438;SDS011;38359;53.150;6.504;2023-04-24T06:27:59;11.95;;;5.60;;
52438;SDS011;38359;53.150;6.504;2023-04-24T06:38:26;11.02;;;6.45;;
52438;SDS011;38359;53.150;6.504;2023-04-24T06:48:54;10.60;;;5.47;;
52438;SDS011;38359;53.150;6.504;2023-04-24T06:59:23;6.28;;;3.90;;
52438;SDS011;38359;53.150;6.504;2023-04-24T07:09:49;10.23;;;2.63;;
52438;SDS011;38359;53.150;6.504;2023-04-24T07:20:15;3.80;;;2.45;;
52438;SDS011;38359;53.150;6.504;2023-04-24T07:30:41;8.35;;;2.35;;
52438;SDS011;38359;53.150;6.504;2023-04-24T07:41:07;7.47;;;2.05;;
52438;SDS011;38359;53.150;6.504;2023-04-24T07:51:33;8.77;;;2.35;;
52438;SDS011;38359;53.150;6.504;2023-04-24T08:02:03;25.00;;;9.38;;
52438;SDS011;38359;53.150;6.504;2023-04-24T08:12:29;44.17;;;15.52;;
52438;SDS011;38359;53.150;6.504;2023-04-24T08:23:00;45.88;;;17.73;;
52438;SDS011;38359;53.150;6.504;2023-04-24T08:33:26;36.40;;;16.30;;
52438;SDS011;38359;53.150;6.504;2023-04-24T08:43:52;40.28;;;14.75;;
52438;SDS011;38359;53.150;6.504;2023-04-24T08:54:23;40.00;;;14.93;;
52438;SDS011;38359;53.150;6.504;2023-04-24T09:04:49;25.95;;;13.40;;
52438;SDS011;38359;53.150;6.504;2023-04-24T09:15:16;26.92;;;11.75;;
52438;SDS011;38359;53.150;6.504;2023-04-24T09:25:43;20.92;;;9.45;;
52438;SDS011;38359;53.150;6.504;2023-04-24T09:36:09;17.73;;;6.28;;
52438;SDS011;38359;53.150;6.504;2023-04-24T09:46:35;28.52;;;8.15;;
52438;SDS011;38359;53.150;6.504;2023-04-24T09:57:01;17.98;;;6.80;;
52438;SDS011;38359;53.150;6.504;2023-04-24T10:07:27;19.65;;;5.55;;
52438;SDS011;38359;53.150;6.504;2023-04-24T10:17:53;17.15;;;3.97;;
52438;SDS011;38359;53.150;6.504;2023-04-24T10:28:19;13.38;;;3.75;;
52438;SDS011;38359;53.150;6.504;2023-04-24T10:38:46;16.25;;;3.83;;
52438;SDS011;38359;53.150;6.504;2023-04-24T10:49:14;9.05;;;2.53;;
52438;SDS011;38359;53.150;6.504;2023-04-24T10:59:40;21.70;;;6.80;;
52438;SDS011;38359;53.150;6.504;2023-04-24T11:10:06;13.27;;;3.15;;
52438;SDS011;38359;53.150;6.504;2023-04-24T11:20:32;16.35;;;2.08;;
52438;SDS011;38359;53.150;6.504;2023-04-24T11:30:58;10.95;;;2.17;;
52438;SDS011;38359;53.150;6.504;2023-04-24T11:41:23;8.95;;;2.28;;
52438;SDS011;38359;53.150;6.504;2023-04-24T11:51:50;12.75;;;2.17;;
52438;SDS011;38359;53.150;6.504;2023-04-24T12:02:24;6.13;;;1.58;;
52438;SDS011;38359;53.150;6.504;2023-04-24T12:12:52;7.65;;;2.13;;
52438;SDS011;38359;53.150;6.504;2023-04-24T12:23:34;14.18;;;2.05;;
52438;SDS011;38359;53.150;6.504;2023-04-24T12:34:02;10.45;;;1.92;;
52438;SDS011;38359;53.150;6.504;2023-04-24T12:44:37;5.95;;;1.27;;
52438;SDS011;38359;53.150;6.504;2023-04-24T12:55:03;4.60;;;1.40;;
52438;SDS011;38359;53.150;6.504;2023-04-24T13:05:30;15.27;;;4.35;;
52438;SDS011;38359;53.150;6.504;2023-04-24T13:15:56;13.75;;;1.70;;
52438;SDS011;38359;53.150;6.504;2023-04-24T13:26:21;5.97;;;0.85;;
52438;SDS011;38359;53.150;6.504;2023-04-24T13:36:47;7.30;;;2.05;;
52438;SDS011;38359;53.150;6.504;2023-04-24T13:47:15;9.88;;;1.70;;
52438;SDS011;38359;53.150;6.504;2023-04-24T13:57:41;9.20;;;1.35;;
52438;SDS011;38359;53.150;6.504;2023-04-24T14:08:06;9.20;;;1.90;;
52438;SDS011;38359;53.150;6.504;2023-04-24T14:18:32;17.42;;;2.15;;
52438;SDS011;38359;53.150;6.504;2023-04-24T14:28:58;19.90;;;3.28;;
52438;SDS011;38359;53.150;6.504;2023-04-24T14:39:24;10.15;;;2.90;;
52438;SDS011;38359;53.150;6.504;2023-04-24T14:49:50;12.02;;;3.90;;
52438;SDS011;38359;53.150;6.504;2023-04-24T15:00:16;18.63;;;3.67;;
52438;SDS011;38359;53.150;6.504;2023-04-24T15:10:43;25.33;;;3.90;;
52438;SDS011;38359;53.150;6.504;2023-04-24T15:21:09;21.88;;;4.30;;
52438;SDS011;38359;53.150;6.504;2023-04-24T15:31:37;20.40;;;4.45;;
52438;SDS011;38359;53.150;6.504;2023-04-24T15:42:05;20.63;;;4.13;;
52438;SDS011;38359;53.150;6.504;2023-04-24T15:52:30;18.88;;;4.07;;
52438;SDS011;38359;53.150;6.504;2023-04-24T16:02:56;13.93;;;3.97;;
52438;SDS011;38359;53.150;6.504;2023-04-24T16:13:22;25.00;;;5.15;;
52438;SDS011;38359;53.150;6.504;2023-04-24T16:23:48;15.35;;;4.25;;
52438;SDS011;38359;53.150;6.504;2023-04-24T16:34:14;19.20;;;5.93;;
52438;SDS011;38359;53.150;6.504;2023-04-24T16:44:40;22.48;;;5.75;;
52438;SDS011;38359;53.150;6.504;2023-04-24T16:55:07;16.27;;;4.00;;
52438;SDS011;38359;53.150;6.504;2023-04-24T17:05:33;13.13;;;2.90;;
52438;SDS011;38359;53.150;6.504;2023-04-24T17:15:59;10.65;;;2.83;;
52438;SDS011;38359;53.150;6.504;2023-04-24T17:26:25;11.93;;;3.35;;
52438;SDS011;38359;53.150;6.504;2023-04-24T17:36:52;8.23;;;2.13;;
52438;SDS011;38359;53.150;6.504;2023-04-24T17:47:18;5.03;;;2.10;;
52438;SDS011;38359;53.150;6.504;2023-04-24T17:57:46;5.68;;;2.35;;
52438;SDS011;38359;53.150;6.504;2023-04-24T18:08:15;7.75;;;3.08;;
52438;SDS011;38359;53.150;6.504;2023-04-24T18:18:41;13.55;;;3.80;;
52438;SDS011;38359;53.150;6.504;2023-04-24T18:29:06;14.80;;;4.40;;
52438;SDS011;38359;53.150;6.504;2023-04-24T18:39:32;16.10;;;4.75;;
52438;SDS011;38359;53.150;6.504;2023-04-24T18:49:58;12.05;;;3.65;;
52438;SDS011;38359;53.150;6.504;2023-04-24T19:00:24;19.27;;;4.88;;
52438;SDS011;38359;53.150;6.504;2023-04-24T19:10:50;21.73;;;5.88;;
52438;SDS011;38359;53.150;6.504;2023-04-24T19:21:16;18.70;;;5.38;;
52438;SDS011;38359;53.150;6.504;2023-04-24T19:31:42;23.45;;;7.18;;
52438;SDS011;38359;53.150;6.504;2023-04-24T19:42:07;25.67;;;5.40;;
52438;SDS011;38359;53.150;6.504;2023-04-24T19:52:33;27.38;;;5.28;;
52438;SDS011;38359;53.150;6.504;2023-04-24T20:02:59;14.35;;;4.30;;
52438;SDS011;38359;53.150;6.504;2023-04-24T20:13:26;13.98;;;3.10;;
52438;SDS011;38359;53.150;6.504;2023-04-24T20:23:52;23.65;;;4.07;;
52438;SDS011;38359;53.150;6.504;2023-04-24T20:34:18;23.65;;;5.00;;
52438;SDS011;38359;53.150;6.504;2023-04-24T20:44:45;58.05;;;8.65;;
52438;SDS011;38359;53.150;6.504;2023-04-24T20:55:11;59.72;;;8.60;;
52438;SDS011;38359;53.150;6.504;2023-04-24T21:05:37;45.97;;;6.95;;
52438;SDS011;38359;53.150;6.504;2023-04-24T21:16:03;49.40;;;6.47;;
52438;SDS011;38359;53.150;6.504;2023-04-24T21:26:29;47.53;;;5.80;;
52438;SDS011;38359;53.150;6.504;2023-04-24T21:36:55;49.40;;;5.88;;
52438;SDS011;38359;53.150;6.504;2023-04-24T21:47:21;32.33;;;5.25;;
52438;SDS011;38359;53.150;6.504;2023-04-24T21:57:46;39.90;;;6.65;;
52438;SDS011;38359;53.150;6.504;2023-04-24T22:08:13;38.22;;;5.80;;
52438;SDS011;38359;53.150;6.504;2023-04-24T22:18:38;38.25;;;5.70;;
52438;SDS011;38359;53.150;6.504;2023-04-24T22:29:04;31.83;;;5.00;;
52438;SDS011;38359;53.150;6.504;2023-04-24T22:39:32;38.13;;;5.20;;
52438;SDS011;38359;53.150;6.504;2023-04-24T22:49:57;30.42;;;4.20;;
52438;SDS011;38359;53.150;6.504;2023-04-24T23:00:23;32.47;;;3.90;;
52438;SDS011;38359;53.150;6.504;2023-04-24T23:10:50;25.05;;;3.67;;
52438;SDS011;38359;53.150;6.504;2023-04-24T23:21:17;29.23;;;4.40;;
52438;SDS011;38359;53.150;6.504;2023-04-24T23:31:42;37.08;;;5.10;;
52438;SDS011;38359;53.150;6.504;2023-04-24T23:42:08;36.55;;;5.30;;
52438;SDS011;38359;53.150;6.504;2023-04-24T23:52:34;36.67;;;5.18;;
